Time;durP1;ratioP1;P1;durP2;ratioP2;P2;SDS_P1;SDS_P2;PMS_P1;PMS_P2;Temp;Humidity;BMP_temperature;BMP_pressure;BME280_temperature;BME280_humidity;BME280_pressure;Samples;Min_cycle;Max_cycle;Signal;HPM_P1;HPM_P2
2023/06/30 00:01:36;;;;;;;34.50;18.77;;;20.30;99.90;;;;;;5052569;28;20055;-67
2023/06/30 00:04:02;;;;;;;38.85;19.88;;;20.20;99.90;;;;;;5052073;28;20082;-66
2023/06/30 00:06:27;;;;;;;34.28;18.55;;;20.30;99.90;;;;;;5052153;28;20033;-66
2023/06/30 00:08:53;;;;;;;36.05;19.45;;;20.20;99.90;;;;;;5051830;28;20060;-66
2023/06/30 00:11:23;;;;;;;34.75;19.67;;;20.20;99.90;;;;;;5051760;28;20115;-66
2023/06/30 00:13:52;;;;;;;39.95;19.80;;;20.20;99.90;;;;;;5052206;28;20025;-67
2023/06/30 00:16:19;;;;;;;36.08;18.35;;;20.20;99.90;;;;;;5051796;28;20471;-67
2023/06/30 00:18:45;;;;;;;32.08;18.80;;;20.20;99.90;;;;;;5051579;28;20036;-68
2023/06/30 00:21:11;;;;;;;31.70;18.33;;;20.10;99.90;;;;;;5051633;28;20029;-67
2023/06/30 00:23:36;;;;;;;37.03;20.52;;;20.10;99.90;;;;;;5050299;28;20355;-67
2023/06/30 00:26:02;;;;;;;44.60;21.67;;;20.10;99.90;;;;;;5051546;28;20032;-68
2023/06/30 00:28:28;;;;;;;39.05;19.55;;;20.10;99.90;;;;;;5051832;28;20519;-67
2023/06/30 00:30:53;;;;;;;42.00;21.67;;;20.20;99.90;;;;;;5051005;28;20049;-66
2023/06/30 00:33:19;;;;;;;41.33;21.23;;;20.20;99.90;;;;;;5051283;28;20512;-66
2023/06/30 00:35:45;;;;;;;43.35;22.83;;;20.20;99.90;;;;;;5051394;28;20064;-67
2023/06/30 00:38:10;;;;;;;40.28;22.15;;;20.10;99.90;;;;;;5051190;28;20124;-67
2023/06/30 00:40:36;;;;;;;46.00;23.10;;;20.10;99.90;;;;;;5051816;28;20033;-67
2023/06/30 00:43:02;;;;;;;43.17;22.65;;;20.00;99.90;;;;;;5051094;28;20104;-67
2023/06/30 00:45:27;;;;;;;39.25;21.05;;;19.90;99.90;;;;;;5051121;28;20021;-68
2023/06/30 00:47:53;;;;;;;46.67;21.55;;;20.00;99.90;;;;;;5049884;28;20445;-69
2023/06/30 00:50:19;;;;;;;45.13;23.50;;;20.00;99.90;;;;;;5051224;28;20124;-67
2023/06/30 00:52:47;;;;;;;45.47;23.33;;;20.00;99.90;;;;;;5051314;28;20406;-66
2023/06/30 00:55:15;;;;;;;42.97;22.58;;;20.00;99.90;;;;;;5049800;28;20348;-66
2023/06/30 00:57:41;;;;;;;46.83;23.27;;;20.00;99.90;;;;;;5051057;28;20028;-68
2023/06/30 01:00:11;;;;;;;44.40;22.88;;;19.90;99.90;;;;;;5051166;28;20025;-67
2023/06/30 01:02:43;;;;;;;41.75;22.10;;;20.00;99.90;;;;;;5051011;28;20036;-67
2023/06/30 01:05:09;;;;;;;42.45;21.95;;;20.00;99.90;;;;;;5051113;28;20028;-68
2023/06/30 01:07:41;;;;;;;48.20;23.50;;;20.00;99.90;;;;;;5051394;28;20486;-68
2023/06/30 01:10:12;;;;;;;42.63;23.13;;;20.00;99.90;;;;;;5050627;28;20029;-68
2023/06/30 01:12:39;;;;;;;44.15;23.27;;;19.90;99.90;;;;;;5050853;28;20040;-66
2023/06/30 01:15:06;;;;;;;46.05;24.27;;;20.00;99.90;;;;;;5050560;28;20040;-66
2023/06/30 01:17:33;;;;;;;46.05;25.67;;;19.90;99.90;;;;;;5050476;28;20378;-67
2023/06/30 01:20:02;;;;;;;44.58;24.13;;;20.00;99.90;;;;;;5050355;28;20021;-67
2023/06/30 01:22:40;;;;;;;48.95;24.50;;;19.90;99.90;;;;;;5051016;28;20524;-67
2023/06/30 01:25:10;;;;;;;47.60;24.70;;;20.00;99.90;;;;;;5049127;28;20467;-67
2023/06/30 01:27:39;;;;;;;47.15;25.70;;;20.00;99.90;;;;;;5050423;28;20394;-67
2023/06/30 01:30:06;;;;;;;43.10;23.25;;;19.90;99.90;;;;;;5050017;28;20106;-68
2023/06/30 01:32:32;;;;;;;48.63;25.85;;;20.00;99.90;;;;;;5050421;28;20064;-68
2023/06/30 01:34:58;;;;;;;46.13;24.50;;;20.00;99.90;;;;;;5050974;28;20431;-67
2023/06/30 01:37:23;;;;;;;47.97;24.60;;;20.00;99.90;;;;;;5070581;28;20067;-69
2023/06/30 01:39:49;;;;;;;51.47;24.42;;;20.00;99.90;;;;;;5070225;28;20029;-68
2023/06/30 01:42:16;;;;;;;48.00;25.60;;;19.90;99.90;;;;;;5070115;28;20393;-68
2023/06/30 01:44:43;;;;;;;48.08;24.67;;;19.90;99.90;;;;;;5070187;28;20024;-68
2023/06/30 01:47:10;;;;;;;48.60;25.35;;;20.00;99.90;;;;;;5070254;28;20033;-67
2023/06/30 01:49:35;;;;;;;45.78;24.60;;;20.00;99.90;;;;;;5070557;28;20496;-67
2023/06/30 01:52:02;;;;;;;51.33;24.50;;;20.00;99.90;;;;;;5069696;28;20036;-68
2023/06/30 01:54:27;;;;;;;46.70;24.73;;;20.10;99.90;;;;;;5069019;28;20370;-67
2023/06/30 01:56:53;;;;;;;48.25;25.83;;;20.10;99.90;;;;;;5070014;28;20040;-68
2023/06/30 01:59:18;;;;;;;50.10;25.48;;;20.10;99.90;;;;;;5069856;28;20056;-68
2023/06/30 02:01:44;;;;;;;46.55;25.83;;;20.00;99.90;;;;;;5070531;28;20024;-66
2023/06/30 02:04:10;;;;;;;49.67;25.85;;;20.10;99.90;;;;;;5070125;28;20060;-68
2023/06/30 02:06:36;;;;;;;46.90;23.95;;;20.10;99.90;;;;;;5069988;28;20040;-67
2023/06/30 02:09:02;;;;;;;42.85;23.75;;;20.10;99.90;;;;;;5072180;28;20086;-67
2023/06/30 02:11:27;;;;;;;39.63;21.92;;;20.10;99.90;;;;;;5074098;28;20040;-66
2023/06/30 02:13:53;;;;;;;42.72;23.17;;;20.10;99.90;;;;;;5074548;28;20344;-66
2023/06/30 02:16:19;;;;;;;43.38;23.80;;;20.10;99.90;;;;;;5072722;28;20204;-67
2023/06/30 02:18:44;;;;;;;39.97;22.08;;;20.10;99.90;;;;;;5072761;28;20047;-67
2023/06/30 02:21:10;;;;;;;46.65;23.25;;;20.00;99.90;;;;;;5073917;28;20029;-68
2023/06/30 02:23:36;;;;;;;41.28;22.80;;;19.90;99.90;;;;;;5073750;28;20043;-66
2023/06/30 02:26:01;;;;;;;40.78;21.92;;;19.90;99.90;;;;;;5073988;28;20082;-66
2023/06/30 02:28:27;;;;;;;34.72;20.48;;;19.80;99.90;;;;;;5074249;28;20111;-67
2023/06/30 02:30:54;;;;;;;40.08;20.50;;;19.90;99.90;;;;;;5073673;28;20144;-67
2023/06/30 02:33:19;;;;;;;35.88;20.75;;;19.90;99.90;;;;;;5073849;28;20429;-67
2023/06/30 02:35:45;;;;;;;42.28;22.23;;;19.90;99.90;;;;;;5073835;28;20032;-67
2023/06/30 02:38:11;;;;;;;37.55;18.52;;;19.90;99.90;;;;;;5073306;28;20029;-68
2023/06/30 02:40:36;;;;;;;34.90;19.70;;;20.00;99.90;;;;;;5073886;28;20330;-67
2023/06/30 02:43:03;;;;;;;37.00;19.85;;;19.90;99.90;;;;;;5073521;28;20068;-68
2023/06/30 02:45:28;;;;;;;38.53;20.50;;;20.00;99.90;;;;;;5073486;28;20433;-67
2023/06/30 02:47:54;;;;;;;33.80;18.23;;;20.00;99.90;;;;;;5072469;28;20037;-68
2023/06/30 02:50:28;;;;;;;34.60;18.77;;;20.10;99.90;;;;;;5073217;28;20028;-67
2023/06/30 02:52:53;;;;;;;37.90;17.83;;;19.90;99.90;;;;;;5073948;28;20025;-66
2023/06/30 02:55:19;;;;;;;32.83;17.02;;;19.80;99.90;;;;;;5073245;28;20089;-67
2023/06/30 02:57:44;;;;;;;30.17;15.55;;;19.90;99.90;;;;;;5073032;28;20028;-68
2023/06/30 03:00:11;;;;;;;33.33;16.30;;;19.90;99.90;;;;;;5073087;28;20024;-67
2023/06/30 03:02:36;;;;;;;27.15;14.38;;;19.90;99.90;;;;;;5073081;28;20111;-67
2023/06/30 03:05:02;;;;;;;28.17;14.40;;;19.90;99.90;;;;;;5055447;28;20104;-67
2023/06/30 03:07:27;;;;;;;27.52;14.43;;;19.80;99.90;;;;;;5073279;28;20021;-67
2023/06/30 03:09:53;;;;;;;28.10;13.90;;;19.70;99.90;;;;;;5073041;28;20428;-67
2023/06/30 03:12:19;;;;;;;26.90;13.75;;;19.70;99.90;;;;;;5071699;28;20028;-67
2023/06/30 03:14:44;;;;;;;26.52;13.52;;;19.70;99.90;;;;;;5072903;28;20029;-68
2023/06/30 03:17:10;;;;;;;21.52;12.88;;;19.70;99.90;;;;;;5072799;28;20025;-68
2023/06/30 03:19:35;;;;;;;25.08;13.70;;;19.80;99.90;;;;;;5071750;28;20036;-67
2023/06/30 03:22:01;;;;;;;22.25;12.43;;;19.80;99.90;;;;;;5072788;28;20376;-67
2023/06/30 03:24:27;;;;;;;22.90;11.70;;;19.80;99.90;;;;;;5072580;28;20028;-67
2023/06/30 03:26:52;;;;;;;23.52;12.80;;;19.80;99.90;;;;;;5072736;28;20115;-67
2023/06/30 03:29:18;;;;;;;22.08;11.45;;;19.70;99.90;;;;;;5072721;28;20140;-66
2023/06/30 03:31:43;;;;;;;20.02;10.52;;;19.60;99.90;;;;;;5072920;28;20040;-67
2023/06/30 03:34:09;;;;;;;25.80;10.75;;;19.50;99.90;;;;;;5072311;28;20039;-68
2023/06/30 03:36:35;;;;;;;20.73;10.15;;;19.60;99.90;;;;;;5072344;28;20036;-68
2023/06/30 03:39:00;;;;;;;20.65;9.48;;;19.50;99.90;;;;;;5072172;28;20041;-67
2023/06/30 03:41:26;;;;;;;16.13;9.73;;;19.40;99.90;;;;;;5072492;28;20401;-67
2023/06/30 03:43:52;;;;;;;17.40;9.80;;;19.40;99.90;;;;;;5072594;28;20051;-67
2023/06/30 03:46:18;;;;;;;15.65;10.48;;;19.30;99.90;;;;;;5070994;28;20040;-68
2023/06/30 03:48:43;;;;;;;19.77;10.82;;;19.10;99.90;;;;;;5072256;28;20466;-67
2023/06/30 03:51:09;;;;;;;19.75;9.65;;;19.20;99.90;;;;;;5072130;28;20127;-69
2023/06/30 03:53:34;;;;;;;16.55;9.23;;;19.20;99.90;;;;;;5072229;28;20036;-67
2023/06/30 03:56:00;;;;;;;17.02;9.43;;;19.30;99.90;;;;;;5072107;28;20024;-68
2023/06/30 03:58:28;;;;;;;13.60;8.05;;;19.20;99.90;;;;;;5072485;28;20120;-67
2023/06/30 04:00:54;;;;;;;16.90;8.98;;;19.00;99.90;;;;;;5072293;28;20130;-68
2023/06/30 04:03:20;;;;;;;16.10;8.57;;;19.10;99.90;;;;;;5072024;28;20036;-68
2023/06/30 04:05:46;;;;;;;11.43;7.18;;;19.10;99.90;;;;;;5072350;28;20359;-68
2023/06/30 04:08:11;;;;;;;14.13;7.65;;;19.10;99.90;;;;;;5071977;28;20025;-67
2023/06/30 04:10:37;;;;;;;13.80;6.97;;;19.20;99.90;;;;;;5072331;28;20037;-68
2023/06/30 04:13:06;;;;;;;11.82;6.60;;;19.10;99.90;;;;;;5071056;28;20036;-68
2023/06/30 04:15:31;;;;;;;16.90;7.25;;;19.20;99.90;;;;;;5071832;28;20338;-68
2023/06/30 04:17:57;;;;;;;9.32;6.38;;;19.20;99.90;;;;;;5071728;28;20263;-67
2023/06/30 04:20:22;;;;;;;14.38;6.35;;;19.20;99.90;;;;;;5070843;28;20025;-67
2023/06/30 04:22:48;;;;;;;12.02;6.53;;;19.10;99.90;;;;;;5071790;28;20031;-67
2023/06/30 04:25:14;;;;;;;10.00;6.30;;;19.10;99.90;;;;;;5071552;28;20052;-68
2023/06/30 04:27:40;;;;;;;10.80;5.20;;;19.10;99.90;;;;;;5071639;28;20033;-68
2023/06/30 04:30:09;;;;;;;14.02;6.53;;;19.00;99.90;;;;;;5070942;28;20374;-68
2023/06/30 04:32:34;;;;;;;13.35;6.38;;;19.10;99.90;;;;;;5071465;28;20093;-69
2023/06/30 04:35:00;;;;;;;10.55;5.55;;;19.10;99.90;;;;;;5071695;28;20021;-68
2023/06/30 04:37:29;;;;;;;9.75;6.13;;;19.10;99.90;;;;;;5071863;28;20096;-67
2023/06/30 04:39:59;;;;;;;11.18;5.88;;;19.00;99.90;;;;;;5069856;28;20028;-67
2023/06/30 04:42:28;;;;;;;9.73;5.05;;;19.00;99.90;;;;;;5071219;28;20033;-68
2023/06/30 04:44:54;;;;;;;10.80;5.90;;;18.90;99.90;;;;;;5071251;28;20064;-68
2023/06/30 04:47:20;;;;;;;13.02;5.63;;;19.00;99.90;;;;;;5071055;28;20446;-68
2023/06/30 04:49:46;;;;;;;12.27;5.45;;;18.90;99.90;;;;;;5070436;28;20420;-68
2023/06/30 04:52:13;;;;;;;10.52;5.15;;;18.80;99.90;;;;;;5070981;28;20025;-68
2023/06/30 04:54:39;;;;;;;18.93;4.80;;;18.90;99.90;;;;;;5071026;28;20029;-68
2023/06/30 04:57:05;;;;;;;8.95;4.53;;;19.00;99.90;;;;;;5070731;28;20466;-69
2023/06/30 04:59:31;;;;;;;9.43;4.78;;;19.00;99.90;;;;;;5070774;28;20416;-67
2023/06/30 05:01:56;;;;;;;10.32;5.05;;;19.00;99.90;;;;;;5070743;28;20298;-68
2023/06/30 05:04:22;;;;;;;9.27;4.60;;;18.80;99.90;;;;;;5071202;28;20021;-69
2023/06/30 05:06:48;;;;;;;7.28;4.38;;;18.60;99.90;;;;;;5070729;28;20094;-68
2023/06/30 05:09:14;;;;;;;16.23;5.03;;;18.60;99.90;;;;;;5070621;28;20098;-67
2023/06/30 05:11:39;;;;;;;8.32;4.78;;;18.60;99.90;;;;;;5070967;28;20056;-68
2023/06/30 05:14:05;;;;;;;7.60;5.20;;;18.60;99.90;;;;;;5070695;28;20438;-68
2023/06/30 05:16:30;;;;;;;7.78;4.20;;;18.70;99.90;;;;;;5071014;28;20040;-69
2023/06/30 05:18:56;;;;;;;17.23;4.57;;;18.60;99.90;;;;;;5070672;28;20047;-68
2023/06/30 05:21:22;;;;;;;8.82;3.65;;;18.70;99.90;;;;;;5070688;28;20032;-69
2023/06/30 05:23:48;;;;;;;10.95;3.63;;;18.80;99.90;;;;;;5070874;28;20234;-69
2023/06/30 05:26:13;;;;;;;9.48;3.05;;;18.80;99.90;;;;;;5070571;28;20319;-69
2023/06/30 05:28:39;;;;;;;15.32;2.90;;;18.60;99.90;;;;;;5071208;28;20060;-69
2023/06/30 05:31:05;;;;;;;9.63;3.80;;;18.70;99.90;;;;;;5070449;28;20206;-68
2023/06/30 05:33:30;;;;;;;9.15;3.78;;;18.80;99.90;;;;;;5070459;28;20040;-68
2023/06/30 05:35:56;;;;;;;10.20;3.92;;;18.80;99.90;;;;;;5070343;28;20372;-68
2023/06/30 05:38:22;;;;;;;7.55;2.78;;;18.90;99.90;;;;;;5069267;28;20048;-67
2023/06/30 05:40:47;;;;;;;10.23;3.60;;;18.80;99.90;;;;;;5070890;28;20035;-75
2023/06/30 05:43:13;;;;;;;6.53;3.05;;;18.70;99.90;;;;;;5069718;28;20372;-71
2023/06/30 05:45:39;;;;;;;6.82;3.55;;;18.70;99.90;;;;;;5070581;28;20079;-69
2023/06/30 05:48:05;;;;;;;5.63;3.42;;;18.90;99.90;;;;;;5070531;28;20028;-70
2023/06/30 05:50:30;;;;;;;4.85;2.90;;;18.90;99.90;;;;;;5070198;28;20138;-69
2023/06/30 05:52:56;;;;;;;9.13;3.65;;;18.90;99.90;;;;;;5070311;28;20028;-70
2023/06/30 05:55:22;;;;;;;8.60;3.50;;;18.80;99.90;;;;;;5070669;28;20020;-70
2023/06/30 05:57:48;;;;;;;9.05;4.40;;;18.80;99.90;;;;;;5070257;28;20032;-69
2023/06/30 06:00:14;;;;;;;6.53;3.15;;;18.80;99.90;;;;;;5069258;28;20287;-70
2023/06/30 06:02:39;;;;;;;7.13;3.33;;;18.90;99.90;;;;;;5069278;28;20351;-71
2023/06/30 06:05:05;;;;;;;9.80;4.50;;;18.90;99.90;;;;;;5068784;28;20029;-71
2023/06/30 06:07:32;;;;;;;9.20;3.90;;;18.60;99.90;;;;;;5070476;28;20357;-72
2023/06/30 06:09:57;;;;;;;12.10;4.25;;;18.60;99.90;;;;;;5070264;28;20043;-71
2023/06/30 06:12:23;;;;;;;14.13;4.90;;;18.80;99.90;;;;;;5070270;28;20021;-71
2023/06/30 06:14:48;;;;;;;9.52;4.75;;;18.80;99.90;;;;;;5070272;28;20102;-71
2023/06/30 06:17:14;;;;;;;6.97;4.70;;;18.90;99.90;;;;;;5070125;28;20021;-71
2023/06/30 06:19:40;;;;;;;10.18;5.97;;;19.00;99.90;;;;;;5069281;28;20033;-70
2023/06/30 06:22:06;;;;;;;13.80;5.72;;;19.00;99.90;;;;;;5069968;28;20116;-70
2023/06/30 06:24:32;;;;;;;9.00;5.32;;;19.00;99.90;;;;;;5069808;28;20037;-69
2023/06/30 06:26:58;;;;;;;14.45;6.00;;;19.00;99.90;;;;;;5061941;28;20470;-70
2023/06/30 06:29:24;;;;;;;10.23;5.68;;;18.90;99.90;;;;;;5029996;28;20034;-71
2023/06/30 06:31:50;;;;;;;10.45;5.97;;;18.90;99.90;;;;;;5030462;28;20041;-71
2023/06/30 06:34:18;;;;;;;44.30;18.42;;;18.90;99.90;;;;;;5030024;28;20049;-69
2023/06/30 06:36:44;;;;;;;13.43;8.13;;;18.80;99.90;;;;;;5028972;28;20096;-69
2023/06/30 06:39:10;;;;;;;12.60;7.05;;;18.70;99.90;;;;;;5029876;28;20499;-70
2023/06/30 06:41:36;;;;;;;14.63;8.18;;;18.60;99.90;;;;;;5030093;28;20053;-69
2023/06/30 06:44:02;;;;;;;15.93;8.38;;;18.60;99.90;;;;;;5045272;28;20068;-69
2023/06/30 06:46:28;;;;;;;12.73;8.50;;;18.50;99.90;;;;;;5030354;28;20592;-70
2023/06/30 06:48:54;;;;;;;15.25;9.05;;;18.50;99.90;;;;;;5029839;28;20363;-70
2023/06/30 06:51:20;;;;;;;14.43;8.55;;;18.60;99.90;;;;;;5029363;28;20036;-69
2023/06/30 06:53:46;;;;;;;11.20;7.93;;;18.60;99.90;;;;;;5030635;28;20112;-70
2023/06/30 06:56:12;;;;;;;15.18;8.82;;;18.50;99.90;;;;;;5033238;28;20471;-71
2023/06/30 06:58:38;;;;;;;13.70;9.07;;;18.70;99.90;;;;;;5033567;28;20079;-71
2023/06/30 07:01:04;;;;;;;15.32;8.98;;;18.60;99.90;;;;;;5033489;28;20030;-70
2023/06/30 07:03:31;;;;;;;12.57;8.60;;;18.70;99.90;;;;;;5033362;28;20458;-72
2023/06/30 07:05:58;;;;;;;14.18;8.13;;;18.60;99.90;;;;;;5032226;28;20025;-70
2023/06/30 07:08:24;;;;;;;14.25;8.38;;;18.70;99.90;;;;;;5048893;28;20463;-72
2023/06/30 07:10:51;;;;;;;14.20;8.63;;;18.80;99.90;;;;;;5032395;28;20056;-71
2023/06/30 07:13:18;;;;;;;11.27;8.60;;;18.90;99.90;;;;;;5032857;28;20555;-70
2023/06/30 07:15:48;;;;;;;14.40;9.18;;;18.90;99.90;;;;;;5032614;28;20467;-71
2023/06/30 07:18:17;;;;;;;12.07;8.93;;;18.90;99.90;;;;;;5032829;28;20049;-68
2023/06/30 07:20:46;;;;;;;15.90;9.57;;;19.00;99.90;;;;;;5048585;28;20438;-70
2023/06/30 07:23:12;;;;;;;12.82;9.43;;;19.00;99.90;;;;;;5032657;28;20021;-70
2023/06/30 07:25:37;;;;;;;15.15;9.57;;;19.00;99.90;;;;;;5033375;28;20410;-70
2023/06/30 07:28:04;;;;;;;14.55;9.60;;;19.00;99.90;;;;;;5033136;28;20105;-71
2023/06/30 07:30:29;;;;;;;11.65;9.15;;;18.90;99.90;;;;;;5032506;28;20056;-69
2023/06/30 07:32:55;;;;;;;15.38;9.77;;;18.80;99.90;;;;;;5032541;28;20034;-72
2023/06/30 07:35:21;;;;;;;15.00;9.55;;;18.80;99.90;;;;;;5032159;28;20444;-70
2023/06/30 07:37:48;;;;;;;18.45;10.50;;;18.80;99.90;;;;;;5033109;28;20368;-70
2023/06/30 07:40:15;;;;;;;17.65;9.68;;;18.90;99.90;;;;;;5032390;28;20029;-72
2023/06/30 07:42:42;;;;;;;14.17;9.20;;;18.90;99.90;;;;;;5031161;28;20025;-71
2023/06/30 07:45:10;;;;;;;13.63;9.18;;;18.90;99.90;;;;;;5048053;28;20079;-68
2023/06/30 07:47:37;;;;;;;15.52;9.93;;;19.00;99.90;;;;;;5032425;28;20037;-69
2023/06/30 07:50:11;;;;;;;13.70;9.32;;;19.00;99.90;;;;;;5032265;28;20108;-69
2023/06/30 07:52:40;;;;;;;14.50;10.02;;;19.00;99.90;;;;;;5032552;28;20018;-72
2023/06/30 07:55:06;;;;;;;17.70;10.73;;;19.00;99.90;;;;;;5032210;28;20112;-69
2023/06/30 07:57:32;;;;;;;16.55;9.82;;;19.00;99.90;;;;;;5031922;28;20112;-68
2023/06/30 07:59:58;;;;;;;13.48;9.70;;;19.10;99.90;;;;;;5031206;28;20026;-68
2023/06/30 08:02:23;;;;;;;17.40;11.35;;;19.10;99.90;;;;;;5032539;28;20112;-70
2023/06/30 08:04:50;;;;;;;17.55;9.85;;;19.10;99.90;;;;;;5032343;28;20029;-71
2023/06/30 08:07:16;;;;;;;11.63;9.48;;;19.00;99.90;;;;;;5031676;28;20136;-70
2023/06/30 08:09:42;;;;;;;16.88;9.70;;;19.10;99.90;;;;;;5032097;28;20061;-70
2023/06/30 08:12:08;;;;;;;17.17;8.93;;;19.10;99.90;;;;;;5047595;28;20447;-70
2023/06/30 08:14:35;;;;;;;13.40;10.05;;;19.20;99.90;;;;;;5032005;28;20033;-69
2023/06/30 08:17:01;;;;;;;16.92;9.15;;;19.40;99.90;;;;;;5032007;28;20096;-69
2023/06/30 08:19:27;;;;;;;13.32;8.15;;;19.40;99.90;;;;;;5032122;28;20352;-68
2023/06/30 08:21:53;;;;;;;10.88;8.13;;;19.50;99.90;;;;;;5031378;28;20021;-69
2023/06/30 08:24:18;;;;;;;13.68;7.60;;;19.50;99.90;;;;;;5031463;28;20041;-69
2023/06/30 08:26:44;;;;;;;9.52;7.22;;;19.50;99.90;;;;;;5031402;28;20433;-70
2023/06/30 08:29:10;;;;;;;9.48;6.85;;;19.50;99.90;;;;;;5046773;28;20025;-70
2023/06/30 08:31:36;;;;;;;9.80;6.82;;;19.60;99.90;;;;;;5047509;28;20114;-70
2023/06/30 08:34:02;;;;;;;9.88;6.32;;;19.70;99.90;;;;;;5031490;28;20075;-69
2023/06/30 08:36:28;;;;;;;11.65;6.85;;;19.80;99.90;;;;;;5031575;28;20052;-73
2023/06/30 08:38:53;;;;;;;9.52;5.45;;;19.80;99.90;;;;;;5031426;28;20038;-73
2023/06/30 08:41:19;;;;;;;8.70;6.35;;;19.80;99.90;;;;;;5046722;28;20033;-70
2023/06/30 08:43:46;;;;;;;8.25;6.20;;;19.80;99.90;;;;;;5031705;28;20036;-71
2023/06/30 08:46:14;;;;;;;8.98;6.18;;;19.70;99.90;;;;;;5031652;28;20096;-72
2023/06/30 08:48:40;;;;;;;9.05;6.38;;;19.60;99.90;;;;;;5031381;28;20307;-72
2023/06/30 08:51:06;;;;;;;15.23;7.03;;;19.70;99.90;;;;;;5031063;28;20078;-72
2023/06/30 08:53:33;;;;;;;12.35;6.43;;;19.60;99.90;;;;;;5029934;28;20121;-72
2023/06/30 08:55:59;;;;;;;9.85;6.78;;;19.50;99.90;;;;;;5063322;28;20029;-70
2023/06/30 08:58:28;;;;;;;8.07;5.75;;;19.50;99.90;;;;;;5031183;28;20436;-71
2023/06/30 09:00:55;;;;;;;10.82;6.43;;;19.50;99.90;;;;;;5030939;28;20049;-68
2023/06/30 09:03:21;;;;;;;8.77;5.80;;;19.50;99.90;;;;;;5030841;28;20036;-70
2023/06/30 09:05:49;;;;;;;7.82;5.93;;;19.40;99.90;;;;;;5030759;28;20426;-69
2023/06/30 09:08:23;;;;;;;9.48;6.40;;;19.50;99.90;;;;;;5029519;28;20071;-70
2023/06/30 09:10:50;;;;;;;11.70;6.20;;;19.60;99.90;;;;;;5031218;28;20056;-70
2023/06/30 09:13:21;;;;;;;9.15;6.10;;;19.70;99.90;;;;;;5030877;28;20253;-69
2023/06/30 09:15:47;;;;;;;12.70;7.05;;;19.80;99.90;;;;;;5030586;28;20527;-70
2023/06/30 09:18:13;;;;;;;11.30;6.75;;;19.90;99.90;;;;;;5062815;28;20041;-70
2023/06/30 09:20:39;;;;;;;12.30;6.63;;;20.00;99.90;;;;;;5030479;28;20464;-70
2023/06/30 09:23:05;;;;;;;9.30;5.78;;;20.10;99.90;;;;;;5030387;28;20040;-69
2023/06/30 09:25:33;;;;;;;7.45;5.50;;;20.00;99.90;;;;;;5030940;28;20029;-70
2023/06/30 09:28:05;;;;;;;9.82;6.05;;;20.00;99.90;;;;;;5029423;28;20068;-69
2023/06/30 09:30:32;;;;;;;9.38;6.63;;;20.00;99.90;;;;;;5030053;28;20045;-68
2023/06/30 09:32:57;;;;;;;13.80;6.47;;;19.90;99.90;;;;;;5030111;28;20132;-70
2023/06/30 09:35:23;;;;;;;16.50;8.13;;;19.90;99.90;;;;;;5030478;28;20033;-67
2023/06/30 09:37:49;;;;;;;12.00;7.22;;;19.90;99.90;;;;;;5030710;28;20436;-69
2023/06/30 09:40:15;;;;;;;12.65;7.60;;;20.00;99.90;;;;;;5030420;28;20030;-70
2023/06/30 09:42:43;;;;;;;15.55;6.80;;;20.10;99.90;;;;;;5030207;28;20036;-69
2023/06/30 09:45:10;;;;;;;20.08;10.73;;;20.10;99.90;;;;;;5030280;28;20303;-70
2023/06/30 09:47:35;;;;;;;12.55;8.05;;;20.20;99.90;;;;;;5030323;28;20041;-69
2023/06/30 09:50:02;;;;;;;15.70;7.70;;;20.10;99.90;;;;;;5062405;28;20604;-70
2023/06/30 09:52:31;;;;;;;10.30;6.78;;;20.10;99.90;;;;;;5062927;28;20021;-69
2023/06/30 09:54:57;;;;;;;13.35;7.45;;;20.30;99.90;;;;;;5030260;28;20063;-69
2023/06/30 09:57:27;;;;;;;12.07;7.75;;;20.30;99.90;;;;;;5029103;28;20025;-69
2023/06/30 09:59:53;;;;;;;13.38;8.07;;;20.20;99.90;;;;;;5030002;28;20042;-69
2023/06/30 10:02:18;;;;;;;11.75;8.00;;;20.40;99.90;;;;;;5030038;28;20041;-70
2023/06/30 10:04:44;;;;;;;14.20;8.68;;;20.60;99.90;;;;;;5030336;28;20081;-71
2023/06/30 10:07:13;;;;;;;13.45;6.68;;;20.70;99.90;;;;;;5029825;28;20091;-71
2023/06/30 10:09:42;;;;;;;11.38;6.97;;;20.70;99.90;;;;;;5029891;28;20371;-70
2023/06/30 10:12:09;;;;;;;10.85;7.88;;;20.70;99.90;;;;;;5029977;28;20042;-69
2023/06/30 10:14:38;;;;;;;10.32;6.72;;;20.80;99.90;;;;;;5028897;28;20048;-69
2023/06/30 10:17:06;;;;;;;13.88;7.10;;;20.70;99.90;;;;;;5028564;28;20033;-68
2023/06/30 10:19:33;;;;;;;11.88;5.82;;;20.70;99.90;;;;;;5062047;28;20066;-69
2023/06/30 10:21:59;;;;;;;6.57;4.78;;;20.70;99.90;;;;;;5029928;28;20038;-71
2023/06/30 10:24:37;;;;;;;8.02;4.97;;;20.50;99.90;;;;;;5028479;28;20040;-69
2023/06/30 10:27:04;;;;;;;;;;;20.40;99.90;;;;;;5030231;28;20030;-73
2023/06/30 10:29:30;;;;;;;8.63;4.57;;;20.50;99.90;;;;;;5032012;28;19979;-69
2023/06/30 10:31:56;;;;;;;25.10;13.43;;;20.50;99.90;;;;;;5034005;28;20391;-69
2023/06/30 10:34:21;;;;;;;15.52;10.38;;;20.60;99.90;;;;;;5032499;28;20029;-71
2023/06/30 10:36:48;;;;;;;9.02;5.85;;;20.70;99.90;;;;;;5032427;28;20026;-70
2023/06/30 10:39:15;;;;;;;11.50;5.93;;;20.60;99.90;;;;;;5033313;28;20049;-70
2023/06/30 10:41:50;;;;;;;13.17;6.50;;;20.50;99.90;;;;;;5033356;28;20052;-70
2023/06/30 10:44:20;;;;;;;9.88;6.13;;;20.60;99.90;;;;;;5032375;28;20287;-70
2023/06/30 10:46:53;;;;;;;9.15;5.75;;;20.70;99.90;;;;;;5034742;28;20021;-72
2023/06/30 10:49:32;;;;;;;13.65;7.97;;;20.70;99.90;;;;;;5033462;28;20064;-72
2023/06/30 10:52:00;;;;;;;10.45;5.65;;;20.80;99.90;;;;;;5032322;28;20087;-70
2023/06/30 10:54:26;;;;;;;9.07;6.07;;;20.90;99.90;;;;;;5065457;28;20033;-70
2023/06/30 10:57:08;;;;;;;6.32;5.05;;;20.80;99.90;;;;;;5065579;28;20463;-70
2023/06/30 11:00:06;;;;;;;12.77;6.10;;;20.80;99.90;;;;;;5032943;28;20661;-69
2023/06/30 11:02:33;;;;;;;12.77;5.78;;;20.80;99.90;;;;;;5031599;28;20525;-66
2023/06/30 11:05:19;;;;;;;11.75;5.65;;;20.80;99.90;;;;;;5033203;28;20068;-68
2023/06/30 11:08:06;;;;;;;8.65;5.05;;;20.80;99.90;;;;;;5033334;28;20371;-68
2023/06/30 11:10:32;;;;;;;7.55;4.68;;;20.60;99.90;;;;;;5033277;28;20490;-69
2023/06/30 11:13:00;;;;;;;9.95;4.78;;;20.70;99.90;;;;;;5033090;28;20033;-68
2023/06/30 11:15:34;;;;;;;6.22;4.50;;;20.50;99.90;;;;;;5032799;28;20475;-69
2023/06/30 11:18:19;;;;;;;7.93;4.75;;;20.40;99.90;;;;;;5032866;28;20503;-68
2023/06/30 11:21:04;;;;;;;16.48;6.75;;;20.30;99.90;;;;;;5032918;28;20040;-68
2023/06/30 11:23:37;;;;;;;11.10;6.03;;;20.20;99.90;;;;;;5032562;28;20037;-69
2023/06/30 11:26:16;;;;;;;10.45;5.00;;;20.10;99.90;;;;;;5032684;28;20101;-68
2023/06/30 11:28:44;;;;;;;7.28;4.97;;;20.10;99.90;;;;;;5032640;28;20405;-69
2023/06/30 11:31:11;;;;;;;13.80;8.02;;;20.10;99.90;;;;;;5032081;28;20060;-67
2023/06/30 11:33:40;;;;;;;6.82;5.05;;;20.10;99.90;;;;;;5037975;28;20056;-67
2023/06/30 11:36:15;;;;;;;10.32;5.40;;;20.10;99.90;;;;;;5053479;28;20485;-68
2023/06/30 11:38:45;;;;;;;10.23;6.00;;;20.20;99.90;;;;;;5085635;28;20411;-67
2023/06/30 11:41:11;;;;;;;8.35;4.43;;;20.30;99.90;;;;;;5052003;28;20447;-67
2023/06/30 11:43:39;;;;;;;9.63;5.05;;;20.30;99.90;;;;;;5052633;28;20041;-68
2023/06/30 11:46:05;;;;;;;7.05;4.45;;;20.50;99.90;;;;;;5053517;28;20526;-70
2023/06/30 11:48:38;;;;;;;11.88;8.32;;;20.60;99.90;;;;;;5052930;28;20466;-71
2023/06/30 11:51:03;;;;;;;15.63;6.35;;;20.70;99.90;;;;;;5053259;28;20029;-69
2023/06/30 11:53:30;;;;;;;24.55;13.98;;;20.80;99.90;;;;;;5053179;28;20085;-70
2023/06/30 11:55:57;;;;;;;8.93;3.50;;;21.10;99.90;;;;;;5053531;28;20025;-68
2023/06/30 11:58:23;;;;;;;9.63;3.77;;;21.40;99.70;;;;;;5053044;28;20056;-69
2023/06/30 12:00:48;;;;;;;8.18;3.50;;;21.60;99.10;;;;;;5052846;28;20029;-67
2023/06/30 12:03:18;;;;;;;10.50;4.35;;;21.70;98.50;;;;;;5052731;28;20370;-67
2023/06/30 12:05:55;;;;;;;8.98;3.25;;;21.80;98.40;;;;;;5052911;28;20040;-67
2023/06/30 12:08:20;;;;;;;21.00;6.47;;;22.00;98.40;;;;;;5053210;28;20398;-66
2023/06/30 12:10:47;;;;;;;12.82;7.80;;;22.10;97.80;;;;;;5053128;28;20021;-66
2023/06/30 12:13:13;;;;;;;12.07;3.22;;;22.10;97.30;;;;;;5052741;28;20112;-68
2023/06/30 12:15:40;;;;;;;6.60;2.75;;;21.90;96.80;;;;;;5052750;28;20514;-71
2023/06/30 12:18:05;;;;;;;5.93;4.03;;;21.80;97.10;;;;;;5052050;28;20528;-68
2023/06/30 12:20:34;;;;;;;4.75;2.50;;;21.80;97.00;;;;;;5052379;28;20033;-70
2023/06/30 12:23:01;;;;;;;6.50;3.05;;;21.70;97.10;;;;;;5052362;28;20028;-66
2023/06/30 12:25:38;;;;;;;3.45;2.53;;;21.70;96.80;;;;;;5052811;28;20086;-67
2023/06/30 12:28:05;;;;;;;5.60;2.33;;;21.70;96.70;;;;;;5052446;28;20033;-66
2023/06/30 12:30:31;;;;;;;4.20;2.30;;;21.80;96.70;;;;;;5052013;28;20570;-67
2023/06/30 12:32:58;;;;;;;4.43;2.03;;;21.70;96.30;;;;;;5051906;28;20037;-68
2023/06/30 12:35:50;;;;;;;8.60;1.90;;;21.30;96.10;;;;;;5052802;28;20455;-67